createdAt,value
2023-05-25T00:02:35.856Z,4.90
2023-05-25T00:06:58.000Z,4.80
2023-05-25T00:11:20.288Z,4.80
2023-05-25T00:15:42.866Z,4.80
2023-05-25T00:20:09.656Z,4.70
2023-05-25T00:24:31.915Z,4.70
2023-05-25T00:28:54.314Z,4.70
2023-05-25T00:33:16.978Z,4.60
2023-05-25T00:37:38.812Z,4.60
2023-05-25T00:42:03.394Z,4.50
2023-05-25T00:46:27.026Z,4.40
2023-05-25T00:50:50.883Z,4.30
2023-05-25T00:55:16.842Z,4.20
2023-05-25T00:59:44.981Z,4.10
2023-05-25T01:04:11.426Z,4.10
2023-05-25T01:08:36.188Z,4.20
2023-05-25T01:13:02.232Z,4.30
2023-05-25T01:17:25.647Z,4.30
2023-05-25T01:22:22.448Z,4.40
2023-05-25T01:27:11.621Z,4.30
2023-05-25T01:31:46.656Z,4.10
2023-05-25T01:36:16.639Z,4.00
2023-05-25T01:40:47.703Z,3.90
2023-05-25T01:45:15.021Z,3.90
2023-05-25T01:50:28.575Z,3.80
2023-05-25T01:55:37.075Z,3.70
2023-05-25T02:00:04.916Z,3.70
2023-05-25T02:04:40.252Z,3.80
2023-05-25T02:09:35.803Z,3.70
2023-05-25T02:13:51.862Z,3.70
2023-05-25T02:18:17.979Z,3.60
2023-05-25T02:22:43.387Z,3.70
2023-05-25T02:27:30.781Z,3.70
2023-05-25T02:32:02.656Z,3.80
2023-05-25T02:36:28.623Z,3.70
2023-05-25T02:40:53.858Z,3.70
2023-05-25T02:45:17.108Z,3.80
2023-05-25T02:49:39.195Z,3.70
2023-05-25T02:54:01.757Z,3.70
2023-05-25T02:58:27.809Z,3.70
2023-05-25T03:03:05.794Z,3.70
2023-05-25T03:07:29.161Z,3.70
2023-05-25T03:11:51.500Z,3.60
2023-05-25T03:16:16.039Z,3.50
2023-05-25T03:20:38.468Z,3.50
2023-05-25T03:25:00.458Z,3.60
2023-05-25T03:29:22.543Z,3.80
2023-05-25T03:33:44.681Z,4.10
2023-05-25T03:38:07.359Z,4.60
2023-05-25T03:42:38.101Z,5.10
2023-05-25T03:47:04.283Z,5.60
2023-05-25T03:51:28.639Z,6.20
2023-05-25T03:55:54.146Z,7.00
2023-05-25T04:00:17.167Z,7.90
2023-05-25T04:04:42.129Z,9.00
2023-05-25T04:09:07.354Z,10.20
2023-05-25T04:13:29.376Z,11.60
2023-05-25T04:17:51.914Z,13.00
2023-05-25T04:22:14.039Z,14.30
2023-05-25T04:26:39.580Z,15.40
2023-05-25T04:31:01.977Z,16.30
2023-05-25T04:35:43.033Z,17.30
2023-05-25T04:40:14.419Z,18.10
2023-05-25T04:44:38.815Z,18.70
2023-05-25T04:49:01.763Z,19.40
2023-05-25T04:53:24.075Z,20.70
2023-05-25T04:57:47.290Z,21.50
2023-05-25T05:02:09.164Z,22.30
2023-05-25T05:06:33.192Z,23.50
2023-05-25T05:10:55.927Z,24.80
2023-05-25T05:15:19.538Z,25.60
2023-05-25T05:19:44.522Z,26.60
2023-05-25T05:24:07.635Z,27.20
2023-05-25T05:28:30.097Z,27.70
2023-05-25T05:32:53.895Z,28.00
2023-05-25T05:37:18.217Z,28.50
2023-05-25T05:41:44.156Z,28.90
2023-05-25T05:46:06.534Z,29.60
2023-05-25T05:50:28.458Z,29.70
2023-05-25T05:54:50.392Z,30.60
2023-05-25T05:59:12.706Z,31.50
2023-05-25T06:03:34.997Z,32.80
2023-05-25T06:07:57.188Z,33.60
2023-05-25T06:12:19.024Z,32.70
2023-05-25T06:16:41.378Z,32.30
2023-05-25T06:21:03.965Z,33.60
2023-05-25T06:25:25.947Z,34.80
2023-05-25T06:29:47.985Z,34.80
2023-05-25T06:34:09.827Z,34.90
2023-05-25T06:38:32.422Z,35.60
2023-05-25T06:42:55.263Z,35.30
2023-05-25T06:47:38.808Z,35.40
2023-05-25T06:52:00.921Z,35.80
2023-05-25T06:56:23.754Z,37.30
2023-05-25T07:00:46.838Z,37.70
2023-05-25T07:05:09.586Z,38.10
2023-05-25T07:09:31.522Z,38.80
2023-05-25T07:13:53.534Z,39.20
2023-05-25T07:18:16.396Z,40.00
2023-05-25T07:22:38.437Z,40.20
2023-05-25T07:27:02.205Z,40.20
2023-05-25T07:31:24.464Z,40.40
2023-05-25T07:35:47.011Z,40.50
2023-05-25T07:40:09.821Z,39.80
2023-05-25T07:44:31.861Z,39.00
2023-05-25T07:48:54.921Z,36.50
2023-05-25T07:53:16.865Z,37.20
2023-05-25T07:57:38.697Z,38.70
2023-05-25T08:02:00.756Z,39.60
2023-05-25T08:06:23.493Z,40.70
2023-05-25T08:10:45.664Z,41.30
2023-05-25T08:15:08.441Z,39.00
2023-05-25T08:19:33.755Z,39.30
2023-05-25T08:23:56.704Z,40.60
2023-05-25T08:28:18.805Z,39.40
2023-05-25T08:32:40.888Z,33.70
2023-05-25T08:37:02.922Z,32.70
2023-05-25T08:41:25.025Z,36.40
2023-05-25T08:45:47.578Z,37.70
2023-05-25T08:50:11.996Z,39.20
2023-05-25T08:54:38.315Z,38.40
2023-05-25T08:59:15.938Z,37.60
2023-05-25T09:03:38.592Z,37.20
2023-05-25T09:08:01.175Z,39.30
2023-05-25T09:12:24.140Z,40.60
2023-05-25T09:16:47.838Z,41.40
2023-05-25T09:21:10.111Z,42.20
2023-05-25T09:25:33.997Z,42.40
2023-05-25T09:30:00.232Z,40.10
2023-05-25T09:34:22.479Z,38.90
2023-05-25T09:38:45.961Z,39.40
2023-05-25T09:43:08.490Z,37.30
2023-05-25T09:47:30.972Z,38.60
2023-05-25T09:51:53.674Z,36.70
2023-05-25T09:56:17.617Z,37.00
2023-05-25T10:00:39.501Z,37.70
2023-05-25T10:05:01.751Z,37.80
2023-05-25T10:09:26.151Z,38.90
2023-05-25T10:13:50.600Z,38.30
2023-05-25T10:18:16.078Z,39.60
2023-05-25T10:22:55.323Z,39.30
2023-05-25T10:27:27.574Z,40.20
2023-05-25T10:31:51.318Z,39.60
2023-05-25T10:36:14.741Z,39.50
2023-05-25T10:40:38.552Z,36.40
2023-05-25T10:45:00.879Z,35.00
2023-05-25T10:49:52.037Z,35.30
2023-05-25T10:54:15.354Z,36.50
2023-05-25T10:58:46.668Z,35.90
2023-05-25T11:03:10.450Z,34.20
2023-05-25T11:07:32.214Z,33.60
2023-05-25T11:12:03.200Z,31.90
2023-05-25T11:16:30.807Z,30.00
2023-05-25T11:21:22.267Z,27.00
2023-05-25T11:25:44.958Z,24.50
2023-05-25T11:30:08.025Z,23.00
2023-05-25T11:34:34.511Z,22.20
2023-05-25T11:43:26.866Z,21.80
2023-05-25T11:47:49.357Z,21.30
2023-05-25T11:52:14.491Z,21.40
2023-05-25T11:56:37.275Z,20.60
2023-05-25T12:01:23.652Z,20.00
2023-05-25T12:05:46.311Z,20.00
2023-05-25T12:10:13.737Z,20.10
2023-05-25T12:14:41.654Z,20.30
2023-05-25T12:19:04.116Z,19.70
2023-05-25T12:23:26.605Z,19.40
2023-05-25T12:27:48.872Z,19.40
2023-05-25T12:32:10.989Z,19.30
2023-05-25T12:36:54.060Z,18.90
2023-05-25T12:41:16.274Z,19.30
2023-05-25T12:45:43.309Z,19.70
2023-05-25T12:50:14.910Z,19.40
2023-05-25T12:54:43.943Z,19.30
2023-05-25T12:59:15.761Z,19.50
2023-05-25T13:03:37.908Z,19.70
2023-05-25T13:08:00.466Z,19.50
2023-05-25T13:12:22.896Z,19.50
2023-05-25T13:16:46.492Z,19.30
2023-05-25T13:21:09.586Z,18.90
2023-05-25T13:25:31.955Z,18.70
2023-05-25T13:29:53.883Z,18.70
2023-05-25T13:34:16.196Z,18.70
2023-05-25T13:38:38.651Z,18.60
2023-05-25T13:43:00.620Z,18.80
2023-05-25T13:47:22.685Z,18.90
2023-05-25T13:51:44.725Z,18.60
2023-05-25T13:56:07.126Z,18.40
2023-05-25T14:00:29.017Z,18.70
2023-05-25T14:04:50.937Z,19.00
2023-05-25T14:09:13.648Z,19.00
2023-05-25T14:13:36.761Z,18.50
2023-05-25T14:17:59.152Z,18.20
2023-05-25T14:22:21.239Z,18.20
2023-05-25T14:26:43.895Z,18.30
2023-05-25T14:31:06.432Z,18.40
2023-05-25T14:35:28.517Z,18.40
2023-05-25T14:39:50.705Z,18.20
2023-05-25T14:44:12.636Z,18.40
2023-05-25T14:48:34.478Z,18.60
2023-05-25T14:52:56.558Z,18.20
2023-05-25T14:57:19.018Z,17.90
2023-05-25T15:01:41.212Z,17.90
2023-05-25T15:06:03.520Z,18.10
2023-05-25T15:10:25.693Z,18.00
2023-05-25T15:14:48.030Z,18.20
2023-05-25T15:19:12.778Z,18.30
2023-05-25T15:23:36.838Z,18.20
2023-05-25T15:27:58.939Z,18.30
2023-05-25T15:32:21.299Z,18.40
2023-05-25T15:36:43.117Z,18.50
2023-05-25T15:41:05.383Z,18.40
2023-05-25T15:45:27.141Z,18.30
2023-05-25T15:49:49.317Z,18.50
2023-05-25T15:54:14.747Z,18.50
2023-05-25T15:58:37.242Z,18.50
2023-05-25T16:02:59.299Z,18.30
2023-05-25T16:07:21.725Z,18.10
2023-05-25T16:11:43.766Z,17.80
2023-05-25T16:16:06.115Z,17.80
2023-05-25T16:20:28.259Z,17.90
2023-05-25T16:24:50.380Z,18.00
2023-05-25T16:29:12.318Z,18.00
2023-05-25T16:33:34.938Z,18.00
2023-05-25T16:37:57.265Z,17.90
2023-05-25T16:42:20.133Z,17.80
2023-05-25T16:46:42.183Z,17.80
2023-05-25T16:51:04.333Z,17.80
2023-05-25T16:55:26.284Z,17.70
2023-05-25T16:59:48.318Z,17.70
2023-05-25T17:04:10.275Z,17.60
2023-05-25T17:08:32.346Z,17.60
2023-05-25T17:12:54.475Z,17.50
2023-05-25T17:17:16.717Z,17.30
2023-05-25T17:21:38.727Z,17.30
2023-05-25T17:26:00.627Z,17.10
2023-05-25T17:30:22.871Z,17.10
2023-05-25T17:34:55.113Z,17.00
2023-05-25T17:39:17.636Z,16.90
2023-05-25T17:43:39.921Z,16.90
2023-05-25T17:48:02.192Z,16.80
2023-05-25T17:52:24.180Z,16.70
2023-05-25T17:56:46.915Z,16.60
2023-05-25T18:01:08.998Z,16.50
2023-05-25T18:05:31.048Z,16.40
2023-05-25T18:09:52.924Z,16.20
2023-05-25T18:14:15.138Z,16.10
2023-05-25T18:18:37.505Z,16.00
2023-05-25T18:22:59.617Z,15.80
2023-05-25T18:27:21.960Z,15.60
2023-05-25T18:31:47.375Z,15.50
2023-05-25T18:36:09.673Z,15.20
2023-05-25T18:40:31.855Z,15.00
2023-05-25T18:44:54.199Z,14.90
2023-05-25T18:49:16.928Z,14.70
2023-05-25T18:53:39.774Z,14.50
2023-05-25T18:58:01.945Z,14.30
2023-05-25T19:02:24.357Z,14.10
2023-05-25T19:06:46.932Z,13.90
2023-05-25T19:11:08.890Z,13.70
2023-05-25T19:15:30.666Z,13.40
2023-05-25T19:19:52.914Z,13.20
2023-05-25T19:24:15.176Z,13.00
2023-05-25T19:28:37.476Z,12.90
2023-05-25T19:32:59.450Z,12.60
2023-05-25T19:37:21.800Z,12.50
2023-05-25T19:41:43.657Z,12.40
2023-05-25T19:46:07.573Z,12.20
2023-05-25T19:50:31.152Z,12.10
2023-05-25T19:54:52.996Z,12.00
2023-05-25T19:59:15.233Z,11.90
2023-05-25T20:03:37.506Z,11.80
2023-05-25T20:07:59.677Z,11.60
2023-05-25T20:12:22.049Z,11.50
2023-05-25T20:16:45.973Z,11.30
2023-05-25T20:21:08.013Z,11.20
2023-05-25T20:25:30.372Z,11.10
2023-05-25T20:29:52.694Z,10.90
2023-05-25T20:34:14.958Z,10.80
2023-05-25T20:38:36.833Z,10.70
2023-05-25T20:42:59.054Z,10.70
2023-05-25T20:47:21.325Z,10.60
2023-05-25T20:51:50.069Z,10.50
2023-05-25T20:56:12.092Z,10.40
2023-05-25T21:00:34.399Z,10.30
2023-05-25T21:04:56.650Z,10.20
2023-05-25T21:09:18.922Z,10.10
2023-05-25T21:13:41.204Z,10.00
2023-05-25T21:18:03.720Z,9.90
2023-05-25T21:22:25.898Z,9.90
2023-05-25T21:26:47.656Z,9.80
2023-05-25T21:31:10.068Z,9.70
2023-05-25T21:35:32.220Z,9.70
2023-05-25T21:39:54.572Z,9.60
2023-05-25T21:44:16.881Z,9.50
2023-05-25T21:48:38.997Z,9.30
2023-05-25T21:53:00.736Z,9.20
2023-05-25T21:57:22.942Z,9.10
2023-05-25T22:01:44.969Z,9.10
2023-05-25T22:06:07.323Z,9.00
2023-05-25T22:10:29.731Z,8.90
2023-05-25T22:14:51.769Z,8.80
2023-05-25T22:19:13.873Z,8.70
2023-05-25T22:23:36.106Z,8.80
2023-05-25T22:28:01.894Z,8.80
2023-05-25T22:32:33.386Z,8.80
2023-05-25T22:37:16.915Z,8.80
2023-05-25T22:41:42.514Z,8.80
2023-05-25T22:46:04.678Z,8.80
2023-05-25T22:50:26.917Z,8.70
2023-05-25T22:54:49.094Z,8.60
2023-05-25T22:59:12.394Z,8.50
2023-05-25T23:03:34.693Z,8.50
2023-05-25T23:07:58.798Z,8.50
2023-05-25T23:12:21.053Z,8.40
2023-05-25T23:16:45.456Z,8.40
2023-05-25T23:21:07.777Z,8.30
2023-05-25T23:25:29.628Z,8.20
2023-05-25T23:29:51.760Z,8.20
2023-05-25T23:34:13.725Z,8.20
2023-05-25T23:38:36.395Z,8.30
2023-05-25T23:42:58.535Z,8.20
2023-05-25T23:47:20.641Z,8.20
2023-05-25T23:51:42.489Z,8.10
2023-05-25T23:56:14.218Z,8.00
